sensor_id;sensor_type;location;lat;lon;timestamp;pressure;altitude;pressure_sealevel;temperature;humidity
70833;BME280;58452;59.418;17.962;2023-03-13T00:00:52;100056.84;;;-5.34;59.61
70833;BME280;58452;59.418;17.962;2023-03-13T00:03:18;100054.16;;;-5.29;59.93
70833;BME280;58452;59.418;17.962;2023-03-13T00:05:44;100059.25;;;-5.31;58.96
70833;BME280;58452;59.418;17.962;2023-03-13T00:08:09;100055.19;;;-5.35;59.01
70833;BME280;58452;59.418;17.962;2023-03-13T00:10:39;100060.19;;;-5.55;60.19
70833;BME280;58452;59.418;17.962;2023-03-13T00:13:05;100052.63;;;-5.55;59.94
70833;BME280;58452;59.418;17.962;2023-03-13T00:15:30;100052.53;;;-5.52;60.49
70833;BME280;58452;59.418;17.962;2023-03-13T00:17:56;100057.13;;;-5.63;60.42
70833;BME280;58452;59.418;17.962;2023-03-13T00:20:22;100057.84;;;-5.83;60.70
70833;BME280;58452;59.418;17.962;2023-03-13T00:22:47;100056.94;;;-5.80;60.91
70833;BME280;58452;59.418;17.962;2023-03-13T00:25:12;100058.47;;;-5.76;60.46
70833;BME280;58452;59.418;17.962;2023-03-13T00:27:38;100066.88;;;-5.77;60.77
70833;BME280;58452;59.418;17.962;2023-03-13T00:30:04;100063.38;;;-5.73;60.30
70833;BME280;58452;59.418;17.962;2023-03-13T00:32:29;100054.63;;;-5.63;60.57
70833;BME280;58452;59.418;17.962;2023-03-13T00:34:55;100052.63;;;-5.55;60.77
70833;BME280;58452;59.418;17.962;2023-03-13T00:37:20;100049.03;;;-5.48;60.35
70833;BME280;58452;59.418;17.962;2023-03-13T00:39:45;100045.38;;;-5.41;60.40
70833;BME280;58452;59.418;17.962;2023-03-13T00:42:11;100044.81;;;-5.48;60.31
70833;BME280;58452;59.418;17.962;2023-03-13T00:44:36;100046.66;;;-5.53;60.06
70833;BME280;58452;59.418;17.962;2023-03-13T00:47:02;100045.22;;;-5.58;60.29
70833;BME280;58452;59.418;17.962;2023-03-13T00:49:29;100041.09;;;-5.61;60.61
70833;BME280;58452;59.418;17.962;2023-03-13T00:51:55;100034.19;;;-5.54;60.11
70833;BME280;58452;59.418;17.962;2023-03-13T00:54:21;100041.63;;;-5.53;59.94
70833;BME280;58452;59.418;17.962;2023-03-13T00:56:46;100027.63;;;-5.58;59.98
70833;BME280;58452;59.418;17.962;2023-03-13T00:59:12;100026.22;;;-5.65;60.02
70833;BME280;58452;59.418;17.962;2023-03-13T01:01:38;100026.16;;;-5.64;60.69
70833;BME280;58452;59.418;17.962;2023-03-13T01:04:06;100024.50;;;-5.65;60.31
70833;BME280;58452;59.418;17.962;2023-03-13T01:06:34;100016.16;;;-5.65;60.07
70833;BME280;58452;59.418;17.962;2023-03-13T01:09:00;100022.47;;;-5.77;60.05
70833;BME280;58452;59.418;17.962;2023-03-13T01:11:29;100011.19;;;-5.88;61.03
70833;BME280;58452;59.418;17.962;2023-03-13T01:13:57;100007.69;;;-5.84;60.76
70833;BME280;58452;59.418;17.962;2023-03-13T01:16:23;100001.91;;;-5.86;61.29
70833;BME280;58452;59.418;17.962;2023-03-13T01:18:52;100001.19;;;-5.90;61.63
70833;BME280;58452;59.418;17.962;2023-03-13T01:21:20;100002.97;;;-5.92;61.61
70833;BME280;58452;59.418;17.962;2023-03-13T01:23:47;99990.53;;;-5.95;61.58
70833;BME280;58452;59.418;17.962;2023-03-13T01:26:13;99994.88;;;-6.00;61.19
70833;BME280;58452;59.418;17.962;2023-03-13T01:28:38;99987.63;;;-6.08;60.86
70833;BME280;58452;59.418;17.962;2023-03-13T01:31:21;99983.16;;;-6.23;61.91
70833;BME280;58452;59.418;17.962;2023-03-13T01:33:50;99983.97;;;-6.22;62.47
70833;BME280;58452;59.418;17.962;2023-03-13T01:36:16;99984.81;;;-6.22;62.08
70833;BME280;58452;59.418;17.962;2023-03-13T01:38:41;99989.81;;;-6.22;62.04
70833;BME280;58452;59.418;17.962;2023-03-13T01:41:09;99988.28;;;-6.26;61.80
70833;BME280;58452;59.418;17.962;2023-03-13T01:43:35;99985.13;;;-6.31;61.77
70833;BME280;58452;59.418;17.962;2023-03-13T01:48:51;99976.25;;;-6.39;61.95
70833;BME280;58452;59.418;17.962;2023-03-13T01:53:46;99967.56;;;-6.54;61.72
70833;BME280;58452;59.418;17.962;2023-03-13T01:56:18;99969.63;;;-6.65;62.10
70833;BME280;58452;59.418;17.962;2023-03-13T01:58:45;99968.09;;;-6.69;62.89
70833;BME280;58452;59.418;17.962;2023-03-13T02:01:11;99960.72;;;-6.74;63.62
70833;BME280;58452;59.418;17.962;2023-03-13T02:03:38;99963.38;;;-6.78;63.85
70833;BME280;58452;59.418;17.962;2023-03-13T02:06:04;99964.31;;;-6.81;63.79
70833;BME280;58452;59.418;17.962;2023-03-13T02:08:42;99959.28;;;-6.81;63.33
70833;BME280;58452;59.418;17.962;2023-03-13T02:13:55;99959.53;;;-6.88;63.10
70833;BME280;58452;59.418;17.962;2023-03-13T02:16:21;99947.22;;;-6.95;62.66
70833;BME280;58452;59.418;17.962;2023-03-13T02:18:47;99951.44;;;-6.97;62.54
70833;BME280;58452;59.418;17.962;2023-03-13T02:23:58;99942.59;;;-7.07;62.88
70833;BME280;58452;59.418;17.962;2023-03-13T02:26:26;99929.31;;;-7.09;62.85
70833;BME280;58452;59.418;17.962;2023-03-13T02:28:51;99933.19;;;-7.25;63.45
70833;BME280;58452;59.418;17.962;2023-03-13T02:31:17;99931.66;;;-7.29;64.00
70833;BME280;58452;59.418;17.962;2023-03-13T02:33:42;99925.63;;;-7.23;64.57
70833;BME280;58452;59.418;17.962;2023-03-13T02:36:10;99922.44;;;-7.28;64.89
70833;BME280;58452;59.418;17.962;2023-03-13T02:38:47;99922.47;;;-7.30;65.44
70833;BME280;58452;59.418;17.962;2023-03-13T02:41:16;99930.75;;;-7.26;65.15
70833;BME280;58452;59.418;17.962;2023-03-13T02:43:42;99937.38;;;-7.25;64.76
70833;BME280;58452;59.418;17.962;2023-03-13T02:46:13;99929.22;;;-7.30;64.23
70833;BME280;58452;59.418;17.962;2023-03-13T02:48:50;99941.97;;;-7.38;64.31
70833;BME280;58452;59.418;17.962;2023-03-13T02:51:21;99931.13;;;-7.38;64.06
70833;BME280;58452;59.418;17.962;2023-03-13T02:53:49;99926.94;;;-7.38;63.98
70833;BME280;58452;59.418;17.962;2023-03-13T02:56:18;99937.78;;;-7.37;64.12
70833;BME280;58452;59.418;17.962;2023-03-13T02:58:44;99927.69;;;-7.36;64.32
70833;BME280;58452;59.418;17.962;2023-03-13T03:01:09;99931.03;;;-7.35;64.05
70833;BME280;58452;59.418;17.962;2023-03-13T03:03:35;99920.19;;;-7.36;64.82
70833;BME280;58452;59.418;17.962;2023-03-13T03:06:03;99927.59;;;-7.33;64.59
70833;BME280;58452;59.418;17.962;2023-03-13T03:08:28;99924.38;;;-7.36;64.66
70833;BME280;58452;59.418;17.962;2023-03-13T03:10:54;99926.78;;;-7.33;64.32
70833;BME280;58452;59.418;17.962;2023-03-13T03:13:19;99932.13;;;-7.44;64.66
70833;BME280;58452;59.418;17.962;2023-03-13T03:15:45;99917.31;;;-7.50;65.00
70833;BME280;58452;59.418;17.962;2023-03-13T03:18:10;99905.75;;;-7.54;65.20
70833;BME280;58452;59.418;17.962;2023-03-13T03:20:36;99910.97;;;-7.60;65.38
70833;BME280;58452;59.418;17.962;2023-03-13T03:23:01;99910.75;;;-7.54;65.34
70833;BME280;58452;59.418;17.962;2023-03-13T03:25:26;99903.09;;;-7.50;65.46
70833;BME280;58452;59.418;17.962;2023-03-13T03:27:52;99908.28;;;-7.56;65.32
70833;BME280;58452;59.418;17.962;2023-03-13T03:30:18;99897.25;;;-7.50;65.39
70833;BME280;58452;59.418;17.962;2023-03-13T03:32:44;99905.75;;;-7.54;65.75
70833;BME280;58452;59.418;17.962;2023-03-13T03:35:09;99912.56;;;-7.59;66.48
70833;BME280;58452;59.418;17.962;2023-03-13T03:37:35;99908.28;;;-7.56;66.22
70833;BME280;58452;59.418;17.962;2023-03-13T03:40:00;99908.94;;;-7.49;66.17
70833;BME280;58452;59.418;17.962;2023-03-13T03:42:25;99901.41;;;-7.49;66.47
70833;BME280;58452;59.418;17.962;2023-03-13T03:44:51;99898.91;;;-7.49;65.98
70833;BME280;58452;59.418;17.962;2023-03-13T03:47:16;99896.22;;;-7.45;65.88
70833;BME280;58452;59.418;17.962;2023-03-13T03:49:42;99892.16;;;-7.47;65.53
70833;BME280;58452;59.418;17.962;2023-03-13T03:52:07;99883.88;;;-7.49;65.52
70833;BME280;58452;59.418;17.962;2023-03-13T03:54:33;99882.44;;;-7.56;65.37
70833;BME280;58452;59.418;17.962;2023-03-13T03:56:59;99890.81;;;-7.57;65.40
70833;BME280;58452;59.418;17.962;2023-03-13T03:59:24;99895.75;;;-7.56;65.81
70833;BME280;58452;59.418;17.962;2023-03-13T04:01:50;99889.16;;;-7.58;65.67
70833;BME280;58452;59.418;17.962;2023-03-13T04:04:15;99893.25;;;-7.56;65.58
70833;BME280;58452;59.418;17.962;2023-03-13T04:06:40;99880.78;;;-7.57;65.53
70833;BME280;58452;59.418;17.962;2023-03-13T04:09:06;99884.88;;;-7.55;65.54
70833;BME280;58452;59.418;17.962;2023-03-13T04:11:31;99877.84;;;-7.70;65.59
70833;BME280;58452;59.418;17.962;2023-03-13T04:13:57;99867.91;;;-7.71;65.44
70833;BME280;58452;59.418;17.962;2023-03-13T04:16:22;99869.50;;;-7.70;65.49
70833;BME280;58452;59.418;17.962;2023-03-13T04:18:48;99863.06;;;-7.77;65.93
70833;BME280;58452;59.418;17.962;2023-03-13T04:21:13;99849.78;;;-7.79;65.60
70833;BME280;58452;59.418;17.962;2023-03-13T04:23:38;99847.28;;;-7.79;65.66
70833;BME280;58452;59.418;17.962;2023-03-13T04:26:04;99843.03;;;-7.77;65.66
70833;BME280;58452;59.418;17.962;2023-03-13T04:28:29;99841.59;;;-7.84;65.95
70833;BME280;58452;59.418;17.962;2023-03-13T04:30:55;99840.06;;;-7.88;65.64
70833;BME280;58452;59.418;17.962;2023-03-13T04:33:23;99829.25;;;-7.89;66.00
70833;BME280;58452;59.418;17.962;2023-03-13T04:35:49;99822.81;;;-7.96;65.63
70833;BME280;58452;59.418;17.962;2023-03-13T04:38:14;99816.75;;;-7.91;65.45
70833;BME280;58452;59.418;17.962;2023-03-13T04:40:39;99811.75;;;-7.91;65.38
70833;BME280;58452;59.418;17.962;2023-03-13T04:43:05;99804.44;;;-7.97;65.38
70833;BME280;58452;59.418;17.962;2023-03-13T04:45:30;99801.47;;;-8.08;66.60
70833;BME280;58452;59.418;17.962;2023-03-13T04:47:56;99795.09;;;-8.18;67.23
70833;BME280;58452;59.418;17.962;2023-03-13T04:50:21;99795.50;;;-8.04;67.03
70833;BME280;58452;59.418;17.962;2023-03-13T04:52:46;99796.16;;;-7.99;66.81
70833;BME280;58452;59.418;17.962;2023-03-13T04:55:12;99791.13;;;-7.97;67.25
70833;BME280;58452;59.418;17.962;2023-03-13T04:57:37;99785.91;;;-7.91;67.36
70833;BME280;58452;59.418;17.962;2023-03-13T05:00:04;99780.78;;;-7.88;67.56
70833;BME280;58452;59.418;17.962;2023-03-13T05:02:32;99783.34;;;-7.89;67.82
70833;BME280;58452;59.418;17.962;2023-03-13T05:04:58;99779.88;;;-7.85;67.40
70833;BME280;58452;59.418;17.962;2023-03-13T05:07:23;99768.34;;;-7.89;67.78
70833;BME280;58452;59.418;17.962;2023-03-13T05:09:49;99760.97;;;-7.94;67.78
70833;BME280;58452;59.418;17.962;2023-03-13T05:12:14;99752.41;;;-7.88;67.68
70833;BME280;58452;59.418;17.962;2023-03-13T05:14:40;99763.63;;;-7.99;68.02
70833;BME280;58452;59.418;17.962;2023-03-13T05:17:05;99767.50;;;-8.15;68.53
70833;BME280;58452;59.418;17.962;2023-03-13T05:19:30;99764.56;;;-8.03;68.72
70833;BME280;58452;59.418;17.962;2023-03-13T05:21:56;99758.31;;;-7.89;68.69
70833;BME280;58452;59.418;17.962;2023-03-13T05:24:21;99754.75;;;-7.82;69.08
70833;BME280;58452;59.418;17.962;2023-03-13T05:26:47;99751.38;;;-7.81;69.82
70833;BME280;58452;59.418;17.962;2023-03-13T05:29:12;99746.03;;;-7.72;70.00
70833;BME280;58452;59.418;17.962;2023-03-13T05:31:37;99735.72;;;-7.63;70.12
70833;BME280;58452;59.418;17.962;2023-03-13T05:34:03;99733.66;;;-7.52;69.70
70833;BME280;58452;59.418;17.962;2023-03-13T05:36:28;99727.34;;;-7.39;69.83
70833;BME280;58452;59.418;17.962;2023-03-13T05:38:54;99721.19;;;-7.30;69.87
70833;BME280;58452;59.418;17.962;2023-03-13T05:41:19;99724.75;;;-7.14;69.65
70833;BME280;58452;59.418;17.962;2023-03-13T05:43:45;99707.53;;;-7.00;69.72
70833;BME280;58452;59.418;17.962;2023-03-13T05:46:10;99711.25;;;-6.88;69.98
70833;BME280;58452;59.418;17.962;2023-03-13T05:48:35;99703.53;;;-6.82;69.84
70833;BME280;58452;59.418;17.962;2023-03-13T05:51:01;99702.50;;;-6.78;70.21
70833;BME280;58452;59.418;17.962;2023-03-13T05:53:26;99708.75;;;-6.67;70.14
70833;BME280;58452;59.418;17.962;2023-03-13T05:55:52;99700.00;;;-6.57;70.06
70833;BME280;58452;59.418;17.962;2023-03-13T05:58:17;99706.41;;;-6.50;69.99
70833;BME280;58452;59.418;17.962;2023-03-13T06:00:43;99700.06;;;-6.38;69.87
70833;BME280;58452;59.418;17.962;2023-03-13T06:03:08;99702.09;;;-6.26;70.08
70833;BME280;58452;59.418;17.962;2023-03-13T06:05:34;99688.97;;;-6.12;69.98
70833;BME280;58452;59.418;17.962;2023-03-13T06:08:00;99689.31;;;-6.00;69.93
70833;BME280;58452;59.418;17.962;2023-03-13T06:10:27;99681.19;;;-5.86;70.52
70833;BME280;58452;59.418;17.962;2023-03-13T06:12:53;99677.25;;;-5.73;70.71
70833;BME280;58452;59.418;17.962;2023-03-13T06:15:19;99666.53;;;-5.58;70.86
70833;BME280;58452;59.418;17.962;2023-03-13T06:17:45;99668.44;;;-5.44;71.26
70833;BME280;58452;59.418;17.962;2023-03-13T06:20:11;99664.47;;;-5.31;71.42
70833;BME280;58452;59.418;17.962;2023-03-13T06:22:37;99663.94;;;-5.19;71.91
70833;BME280;58452;59.418;17.962;2023-03-13T06:25:02;99654.94;;;-5.06;72.13
70833;BME280;58452;59.418;17.962;2023-03-13T06:27:28;99650.16;;;-4.93;72.18
70833;BME280;58452;59.418;17.962;2023-03-13T06:29:53;99648.69;;;-4.80;72.65
70833;BME280;58452;59.418;17.962;2023-03-13T06:32:19;99649.00;;;-4.69;72.37
70833;BME280;58452;59.418;17.962;2023-03-13T06:34:44;99641.75;;;-4.58;73.05
70833;BME280;58452;59.418;17.962;2023-03-13T06:37:10;99627.72;;;-4.45;72.78
70833;BME280;58452;59.418;17.962;2023-03-13T06:39:35;99627.03;;;-4.31;72.89
70833;BME280;58452;59.418;17.962;2023-03-13T06:42:01;99617.06;;;-4.17;73.18
70833;BME280;58452;59.418;17.962;2023-03-13T06:44:26;99624.75;;;-4.03;73.42
70833;BME280;58452;59.418;17.962;2023-03-13T06:46:52;99609.75;;;-3.88;73.89
70833;BME280;58452;59.418;17.962;2023-03-13T06:49:17;99608.53;;;-3.81;73.71
70833;BME280;58452;59.418;17.962;2023-03-13T06:51:42;99603.63;;;-3.67;73.56
70833;BME280;58452;59.418;17.962;2023-03-13T06:54:09;99602.72;;;-3.51;73.89
70833;BME280;58452;59.418;17.962;2023-03-13T06:56:34;99583.03;;;-3.44;73.81
70833;BME280;58452;59.418;17.962;2023-03-13T06:59:00;99580.91;;;-3.36;73.90
70833;BME280;58452;59.418;17.962;2023-03-13T07:01:26;99559.09;;;-3.21;73.94
70833;BME280;58452;59.418;17.962;2023-03-13T07:03:51;99555.78;;;-3.08;73.96
70833;BME280;58452;59.418;17.962;2023-03-13T07:06:17;99551.88;;;-2.98;73.82
70833;BME280;58452;59.418;17.962;2023-03-13T07:08:43;99552.81;;;-2.84;73.64
70833;BME280;58452;59.418;17.962;2023-03-13T07:11:10;99545.38;;;-2.72;73.72
70833;BME280;58452;59.418;17.962;2023-03-13T07:13:36;99542.94;;;-2.59;73.29
70833;BME280;58452;59.418;17.962;2023-03-13T07:16:10;99552.16;;;-2.44;73.15
70833;BME280;58452;59.418;17.962;2023-03-13T07:18:37;99537.81;;;-2.29;73.02
70833;BME280;58452;59.418;17.962;2023-03-13T07:21:03;99528.53;;;-2.15;73.08
70833;BME280;58452;59.418;17.962;2023-03-13T07:23:29;99514.97;;;-2.00;72.30
70833;BME280;58452;59.418;17.962;2023-03-13T07:26:03;99516.56;;;-1.84;72.04
70833;BME280;58452;59.418;17.962;2023-03-13T07:28:30;99495.56;;;-1.72;72.12
70833;BME280;58452;59.418;17.962;2023-03-13T07:31:03;99482.16;;;-1.60;71.18
70833;BME280;58452;59.418;17.962;2023-03-13T07:33:28;99480.59;;;-1.49;70.15
70833;BME280;58452;59.418;17.962;2023-03-13T07:35:54;99484.78;;;-1.35;69.84
70833;BME280;58452;59.418;17.962;2023-03-13T07:38:19;99487.25;;;-1.21;69.97
70833;BME280;58452;59.418;17.962;2023-03-13T07:40:49;99494.94;;;-1.10;68.89
70833;BME280;58452;59.418;17.962;2023-03-13T07:43:15;99477.34;;;-0.99;67.91
70833;BME280;58452;59.418;17.962;2023-03-13T07:45:55;99474.31;;;-0.91;67.50
70833;BME280;58452;59.418;17.962;2023-03-13T07:48:22;99465.22;;;-0.81;66.97
70833;BME280;58452;59.418;17.962;2023-03-13T07:50:48;99463.19;;;-0.76;66.14
70833;BME280;58452;59.418;17.962;2023-03-13T07:53:14;99454.06;;;-0.66;66.58
70833;BME280;58452;59.418;17.962;2023-03-13T07:58:20;99435.91;;;-0.47;65.61
70833;BME280;58452;59.418;17.962;2023-03-13T08:00:46;99413.69;;;-0.43;66.10
70833;BME280;58452;59.418;17.962;2023-03-13T08:03:12;99405.34;;;-0.33;65.69
70833;BME280;58452;59.418;17.962;2023-03-13T08:05:37;99405.75;;;-0.26;66.14
70833;BME280;58452;59.418;17.962;2023-03-13T08:08:03;99386.91;;;-0.22;66.22
70833;BME280;58452;59.418;17.962;2023-03-13T08:10:29;99386.56;;;-0.18;65.92
70833;BME280;58452;59.418;17.962;2023-03-13T08:12:55;99380.84;;;-0.09;65.89
70833;BME280;58452;59.418;17.962;2023-03-13T08:15:20;99386.38;;;-0.04;66.19
70833;BME280;58452;59.418;17.962;2023-03-13T08:17:53;99382.41;;;0.05;66.86
70833;BME280;58452;59.418;17.962;2023-03-13T08:20:19;99379.06;;;0.05;68.07
70833;BME280;58452;59.418;17.962;2023-03-13T08:22:45;99370.09;;;0.12;68.00
70833;BME280;58452;59.418;17.962;2023-03-13T08:25:15;99376.44;;;0.06;69.52
70833;BME280;58452;59.418;17.962;2023-03-13T08:27:41;99377.25;;;0.07;70.37
70833;BME280;58452;59.418;17.962;2023-03-13T08:30:07;99367.94;;;-0.06;71.60
70833;BME280;58452;59.418;17.962;2023-03-13T08:32:36;99358.19;;;0.01;71.93
70833;BME280;58452;59.418;17.962;2023-03-13T08:35:03;99347.72;;;0.06;72.87
70833;BME280;58452;59.418;17.962;2023-03-13T08:37:29;99346.56;;;0.10;73.54
70833;BME280;58452;59.418;17.962;2023-03-13T08:39:54;99343.56;;;0.05;74.16
70833;BME280;58452;59.418;17.962;2023-03-13T08:42:21;99342.09;;;0.13;74.37
70833;BME280;58452;59.418;17.962;2023-03-13T08:44:47;99329.97;;;0.06;75.36
70833;BME280;58452;59.418;17.962;2023-03-13T08:47:12;99327.94;;;0.22;74.69
70833;BME280;58452;59.418;17.962;2023-03-13T08:49:38;99315.50;;;0.30;75.65
70833;BME280;58452;59.418;17.962;2023-03-13T08:52:04;99306.50;;;0.26;75.74
70833;BME280;58452;59.418;17.962;2023-03-13T08:54:30;99306.41;;;0.38;75.99
70833;BME280;58452;59.418;17.962;2023-03-13T08:56:55;99295.22;;;0.41;76.74
70833;BME280;58452;59.418;17.962;2023-03-13T08:59:21;99305.19;;;0.44;76.70
70833;BME280;58452;59.418;17.962;2023-03-13T09:01:46;99291.09;;;0.51;76.74
70833;BME280;58452;59.418;17.962;2023-03-13T09:04:13;99272.97;;;0.56;76.85
70833;BME280;58452;59.418;17.962;2023-03-13T09:06:39;99259.28;;;0.58;77.02
70833;BME280;58452;59.418;17.962;2023-03-13T09:09:05;99257.06;;;0.65;77.68
70833;BME280;58452;59.418;17.962;2023-03-13T09:11:31;99251.28;;;0.74;77.80
70833;BME280;58452;59.418;17.962;2023-03-13T09:13:57;99228.91;;;0.79;77.44
70833;BME280;58452;59.418;17.962;2023-03-13T09:16:25;99218.84;;;0.66;78.86
70833;BME280;58452;59.418;17.962;2023-03-13T09:18:52;99214.16;;;0.73;78.78
70833;BME280;58452;59.418;17.962;2023-03-13T09:21:23;99211.94;;;0.68;79.31
70833;BME280;58452;59.418;17.962;2023-03-13T09:23:49;99204.31;;;0.79;79.66
70833;BME280;58452;59.418;17.962;2023-03-13T09:26:16;99193.44;;;0.88;79.61
70833;BME280;58452;59.418;17.962;2023-03-13T09:28:42;99183.28;;;0.88;79.64
70833;BME280;58452;59.418;17.962;2023-03-13T09:31:09;99183.66;;;0.95;80.14
70833;BME280;58452;59.418;17.962;2023-03-13T09:33:35;99169.78;;;0.99;80.06
70833;BME280;58452;59.418;17.962;2023-03-13T09:36:01;99163.66;;;1.02;80.41
70833;BME280;58452;59.418;17.962;2023-03-13T09:38:27;99153.69;;;1.10;80.77
70833;BME280;58452;59.418;17.962;2023-03-13T09:40:53;99145.84;;;1.13;80.56
70833;BME280;58452;59.418;17.962;2023-03-13T09:48:57;99116.91;;;1.25;81.10
70833;BME280;58452;59.418;17.962;2023-03-13T09:51:27;99103.16;;;1.27;81.51
70833;BME280;58452;59.418;17.962;2023-03-13T09:53:55;99102.53;;;1.35;81.88
70833;BME280;58452;59.418;17.962;2023-03-13T09:56:29;99091.50;;;1.45;81.29
70833;BME280;58452;59.418;17.962;2023-03-13T09:59:05;99084.88;;;1.54;81.21
70833;BME280;58452;59.418;17.962;2023-03-13T10:01:38;99075.00;;;1.40;81.61
70833;BME280;58452;59.418;17.962;2023-03-13T10:06:52;99059.94;;;1.48;81.53
70833;BME280;58452;59.418;17.962;2023-03-13T10:09:20;99052.00;;;1.41;81.62
70833;BME280;58452;59.418;17.962;2023-03-13T10:12:00;99051.56;;;1.57;81.48
70833;BME280;58452;59.418;17.962;2023-03-13T10:19:39;99028.63;;;1.47;81.47
70833;BME280;58452;59.418;17.962;2023-03-13T10:22:23;99023.53;;;1.47;81.80
70833;BME280;58452;59.418;17.962;2023-03-13T10:25:05;99008.63;;;1.54;81.88
70833;BME280;58452;59.418;17.962;2023-03-13T10:27:42;99006.38;;;1.40;82.38
70833;BME280;58452;59.418;17.962;2023-03-13T10:30:21;99000.09;;;1.34;82.64
70833;BME280;58452;59.418;17.962;2023-03-13T10:32:48;98994.22;;;1.43;82.34
70833;BME280;58452;59.418;17.962;2023-03-13T10:35:21;98979.69;;;1.55;81.97
70833;BME280;58452;59.418;17.962;2023-03-13T10:37:46;98967.41;;;1.60;82.35
70833;BME280;58452;59.418;17.962;2023-03-13T10:40:20;98962.34;;;1.60;81.95
70833;BME280;58452;59.418;17.962;2023-03-13T10:42:47;98957.25;;;1.60;82.13
70833;BME280;58452;59.418;17.962;2023-03-13T10:45:18;98942.41;;;1.65;81.82
70833;BME280;58452;59.418;17.962;2023-03-13T10:47:44;98939.03;;;1.55;82.34
70833;BME280;58452;59.418;17.962;2023-03-13T10:50:17;98928.19;;;1.53;82.26
70833;BME280;58452;59.418;17.962;2023-03-13T10:52:46;98933.09;;;1.45;82.66
70833;BME280;58452;59.418;17.962;2023-03-13T10:55:17;98915.97;;;1.47;82.50
70833;BME280;58452;59.418;17.962;2023-03-13T11:02:48;98882.97;;;1.57;82.38
70833;BME280;58452;59.418;17.962;2023-03-13T11:07:55;98853.94;;;1.59;82.61
70833;BME280;58452;59.418;17.962;2023-03-13T11:10:23;98844.81;;;1.47;82.80
70833;BME280;58452;59.418;17.962;2023-03-13T11:12:51;98843.78;;;1.50;82.98
70833;BME280;58452;59.418;17.962;2023-03-13T11:15:29;98828.13;;;1.54;83.30
70833;BME280;58452;59.418;17.962;2023-03-13T11:20:39;98817.28;;;1.62;83.18
70833;BME280;58452;59.418;17.962;2023-03-13T11:26:14;98806.88;;;1.74;83.37
70833;BME280;58452;59.418;17.962;2023-03-13T11:31:31;98795.50;;;1.69;83.63
70833;BME280;58452;59.418;17.962;2023-03-13T11:34:05;98784.91;;;1.64;83.48
70833;BME280;58452;59.418;17.962;2023-03-13T11:47:26;98737.00;;;1.59;84.13
70833;BME280;58452;59.418;17.962;2023-03-13T11:53:15;98714.41;;;1.75;84.34
70833;BME280;58452;59.418;17.962;2023-03-13T11:58:55;98698.31;;;1.75;83.95
70833;BME280;58452;59.418;17.962;2023-03-13T12:01:40;98690.69;;;1.65;84.29
70833;BME280;58452;59.418;17.962;2023-03-13T12:04:28;98683.06;;;1.65;84.53
70833;BME280;58452;59.418;17.962;2023-03-13T12:09:45;98665.00;;;1.59;84.81
70833;BME280;58452;59.418;17.962;2023-03-13T12:14:43;98629.97;;;1.62;85.08
70833;BME280;58452;59.418;17.962;2023-03-13T12:17:15;98620.06;;;1.59;85.02
70833;BME280;58452;59.418;17.962;2023-03-13T12:19:54;98619.13;;;1.60;84.90
70833;BME280;58452;59.418;17.962;2023-03-13T12:22:46;98605.09;;;1.56;85.32
70833;BME280;58452;59.418;17.962;2023-03-13T12:25:36;98603.19;;;1.58;85.09
70833;BME280;58452;59.418;17.962;2023-03-13T12:28:18;98586.50;;;1.56;85.43
70833;BME280;58452;59.418;17.962;2023-03-13T12:31:35;98578.34;;;1.52;85.90
70833;BME280;58452;59.418;17.962;2023-03-13T12:33:51;98574.06;;;1.53;86.08
70833;BME280;58452;59.418;17.962;2023-03-13T12:41:45;98541.13;;;1.61;85.76
70833;BME280;58452;59.418;17.962;2023-03-13T12:44:19;98531.09;;;1.59;85.55
70833;BME280;58452;59.418;17.962;2023-03-13T12:46:51;98529.59;;;1.66;86.11
70833;BME280;58452;59.418;17.962;2023-03-13T12:55:27;98485.72;;;1.64;85.46
70833;BME280;58452;59.418;17.962;2023-03-13T13:00:16;98460.59;;;1.61;85.96
70833;BME280;58452;59.418;17.962;2023-03-13T13:02:45;98463.50;;;1.66;86.03
70833;BME280;58452;59.418;17.962;2023-03-13T13:05:18;98442.13;;;1.59;86.09
70833;BME280;58452;59.418;17.962;2023-03-13T13:07:53;98420.28;;;1.66;86.08
70833;BME280;58452;59.418;17.962;2023-03-13T13:10:24;98417.59;;;1.68;86.18
70833;BME280;58452;59.418;17.962;2023-03-13T13:13:28;98389.41;;;1.61;85.97
70833;BME280;58452;59.418;17.962;2023-03-13T13:16:00;98396.03;;;1.72;86.00
70833;BME280;58452;59.418;17.962;2023-03-13T13:18:28;98381.81;;;1.79;85.72
70833;BME280;58452;59.418;17.962;2023-03-13T13:23:41;98340.84;;;1.82;85.36
70833;BME280;58452;59.418;17.962;2023-03-13T13:28:55;98329.47;;;1.76;85.56
70833;BME280;58452;59.418;17.962;2023-03-13T13:31:53;98313.28;;;1.77;85.60
70833;BME280;58452;59.418;17.962;2023-03-13T13:36:53;98297.41;;;1.75;85.87
70833;BME280;58452;59.418;17.962;2023-03-13T13:39:38;98290.78;;;1.82;85.71
70833;BME280;58452;59.418;17.962;2023-03-13T13:44:59;98262.53;;;1.68;85.77
70833;BME280;58452;59.418;17.962;2023-03-13T13:47:27;98249.00;;;1.67;86.33
70833;BME280;58452;59.418;17.962;2023-03-13T13:49:56;98233.75;;;1.67;86.09
70833;BME280;58452;59.418;17.962;2023-03-13T13:52:38;98223.66;;;1.75;86.09
70833;BME280;58452;59.418;17.962;2023-03-13T13:58:03;98207.16;;;1.62;86.35
70833;BME280;58452;59.418;17.962;2023-03-13T14:02:35;98183.34;;;1.63;86.38
70833;BME280;58452;59.418;17.962;2023-03-13T14:05:05;98174.34;;;1.68;86.40
70833;BME280;58452;59.418;17.962;2023-03-13T14:10:20;98149.63;;;1.78;86.34
70833;BME280;58452;59.418;17.962;2023-03-13T14:12:54;98140.38;;;1.77;86.35
70833;BME280;58452;59.418;17.962;2023-03-13T14:15:30;98130.38;;;1.76;85.71
70833;BME280;58452;59.418;17.962;2023-03-13T14:18:24;98133.00;;;1.66;86.54
70833;BME280;58452;59.418;17.962;2023-03-13T14:21:03;98114.13;;;1.69;86.38
70833;BME280;58452;59.418;17.962;2023-03-13T14:23:33;98101.63;;;1.75;86.33
70833;BME280;58452;59.418;17.962;2023-03-13T14:26:28;98093.94;;;1.67;86.01
70833;BME280;58452;59.418;17.962;2023-03-13T14:28:59;98085.06;;;1.71;86.53
70833;BME280;58452;59.418;17.962;2023-03-13T14:31:30;98065.72;;;1.78;86.91
70833;BME280;58452;59.418;17.962;2023-03-13T14:33:57;98051.56;;;1.76;86.02
70833;BME280;58452;59.418;17.962;2023-03-13T14:36:24;98035.53;;;1.75;86.37